Time;durP1;ratioP1;P1;durP2;ratioP2;P2;SDS_P1;SDS_P2;PMS_P1;PMS_P2;Temp;Humidity;BMP_temperature;BMP_pressure;BME280_temperature;BME280_humidity;BME280_pressure;Samples;Min_cycle;Max_cycle;Signal;HPM_P1;HPM_P2
2023/04/26 00:01:59;;;;;;;9.75;4.80;;;;;;;19.02;57.49;98032.91;4922240;29;20047;-73
2023/04/26 00:04:27;;;;;;;8.45;4.70;;;;;;;18.98;57.34;98027.22;4938410;29;20051;-72
2023/04/26 00:06:53;;;;;;;8.07;4.72;;;;;;;18.95;57.33;98021.50;4917393;29;20119;-73
2023/04/26 00:09:22;;;;;;;7.97;4.45;;;;;;;18.95;57.06;98021.50;4922565;28;20051;-72
2023/04/26 00:11:48;;;;;;;5.82;4.25;;;;;;;18.96;56.75;98029.34;4941583;28;20054;-73
2023/04/26 00:14:15;;;;;;;6.60;3.85;;;;;;;18.88;56.94;98013.63;4941524;28;20073;-73
2023/04/26 00:16:42;;;;;;;6.93;4.28;;;;;;;18.86;56.93;98007.69;4957364;28;20117;-72
2023/04/26 00:19:11;;;;;;;5.80;4.20;;;;;;;18.84;56.95;98009.00;4957164;28;20055;-72
2023/04/26 00:21:38;;;;;;;8.27;4.63;;;;;;;18.95;58.47;98008.06;4990648;28;20112;-72
2023/04/26 00:24:26;;;;;;;6.97;4.60;;;;;;;18.81;58.44;98007.63;4992730;28;20469;-72
2023/04/26 00:26:57;;;;;;;7.57;4.88;;;;;;;18.90;58.88;98006.13;4993983;28;20238;-72
2023/04/26 00:29:25;;;;;;;7.85;5.13;;;;;;;18.91;59.29;98002.38;4983618;28;20064;-72
2023/04/26 00:31:51;;;;;;;8.02;4.47;;;;;;;18.77;58.89;98001.13;4985326;28;20049;-72
2023/04/26 00:34:20;;;;;;;6.95;4.90;;;;;;;18.77;58.64;97997.63;5006280;28;20376;-73
2023/04/26 00:36:47;;;;;;;6.05;4.20;;;;;;;18.85;58.16;97992.59;5006508;28;20106;-72
2023/04/26 00:39:14;;;;;;;8.40;4.88;;;;;;;18.79;58.02;97990.91;5038790;28;20079;-73
2023/04/26 00:41:40;;;;;;;6.57;4.72;;;;;;;18.75;58.23;97991.66;5022359;28;20072;-73
2023/04/26 00:44:09;;;;;;;7.85;4.70;;;;;;;18.89;58.42;97976.78;5015076;28;20060;-75
2023/04/26 00:46:37;;;;;;;9.50;4.47;;;;;;;18.82;59.07;97984.25;5006511;28;20411;-77
2023/04/26 00:49:06;;;;;;;8.13;4.32;;;;;;;18.71;58.28;97982.47;5038501;28;20071;-73
2023/04/26 00:51:32;;;;;;;5.93;4.10;;;;;;;18.74;58.00;97984.66;4998828;28;20480;-72
2023/04/26 00:54:00;;;;;;;8.75;3.63;;;;;;;18.73;58.22;97977.69;4999489;28;20211;-72
2023/04/26 00:56:28;;;;;;;7.38;3.63;;;;;;;18.74;58.02;97965.84;4999118;28;20427;-72
2023/04/26 00:58:56;;;;;;;5.72;3.70;;;;;;;18.73;57.78;97983.84;4997275;28;20053;-73
2023/04/26 01:01:23;;;;;;;6.32;3.50;;;;;;;18.69;58.22;97971.16;4997480;28;20053;-73
2023/04/26 01:03:51;;;;;;;5.65;3.38;;;;;;;18.63;58.02;97972.97;4997310;28;20075;-73
2023/04/26 01:06:19;;;;;;;5.80;3.70;;;;;;;18.74;58.26;97961.28;4997272;28;20492;-73
2023/04/26 01:08:46;;;;;;;5.30;3.53;;;;;;;18.63;57.77;97958.72;4997802;28;20052;-73
2023/04/26 01:11:11;;;;;;;5.85;3.15;;;;;;;18.64;57.49;97963.00;4997314;28;20391;-73
2023/04/26 01:13:42;;;;;;;8.25;3.17;;;;;;;18.65;58.05;97960.06;4975155;28;20070;-73
2023/04/26 01:16:08;;;;;;;4.75;3.25;;;;;;;18.75;58.13;97952.16;4977473;28;20046;-77
2023/04/26 01:18:34;;;;;;;5.43;3.13;;;;;;;18.67;57.70;97947.19;4947434;28;20091;-72
2023/04/26 01:21:03;;;;;;;4.28;2.95;;;;;;;18.71;57.82;97950.22;4978949;28;20084;-72
2023/04/26 01:23:30;;;;;;;3.50;3.13;;;;;;;18.88;57.64;97950.97;5013805;28;20514;-72
2023/04/26 01:25:59;;;;;;;9.13;3.63;;;;;;;18.73;57.87;97937.34;5014893;28;20480;-73
2023/04/26 01:28:28;;;;;;;4.60;3.58;;;;;;;18.69;57.79;97945.09;4982157;28;20057;-73
2023/04/26 01:30:53;;;;;;;4.15;3.75;;;;;;;18.71;58.52;97939.47;4982079;28;20104;-72
2023/04/26 01:33:20;;;;;;;7.18;3.80;;;;;;;18.74;58.41;97933.56;4981926;28;20084;-73
2023/04/26 01:35:52;;;;;;;8.07;3.50;;;;;;;18.78;57.76;97930.13;4999406;28;20140;-73
2023/04/26 01:38:20;;;;;;;4.50;3.45;;;;;;;18.77;58.16;97927.69;4982322;28;20140;-73
2023/04/26 01:40:46;;;;;;;8.07;3.85;;;;;;;18.75;58.14;97925.25;4962499;28;20174;-73
2023/04/26 01:43:14;;;;;;;7.63;3.63;;;;;;;18.76;58.39;97921.50;4962548;28;20049;-73
2023/04/26 01:45:48;;;;;;;6.32;3.70;;;;;;;18.92;58.48;97917.09;4964260;28;20065;-73
2023/04/26 01:48:30;;;;;;;5.70;3.40;;;;;;;18.71;58.30;97912.56;4984314;28;20051;-73
2023/04/26 01:50:57;;;;;;;5.78;3.60;;;;;;;18.86;58.15;97913.56;4981805;28;20053;-74
2023/04/26 01:53:25;;;;;;;7.53;3.60;;;;;;;18.73;58.10;97910.44;4962398;28;20062;-73
2023/04/26 01:55:54;;;;;;;5.43;3.30;;;;;;;18.82;58.79;97908.94;4997125;28;20137;-73
2023/04/26 01:58:25;;;;;;;6.50;3.65;;;;;;;18.74;59.16;97907.50;5002189;28;20053;-73
2023/04/26 02:00:52;;;;;;;5.10;3.88;;;;;;;18.65;59.12;97900.13;5001850;28;20122;-72
2023/04/26 02:03:17;;;;;;;4.07;3.28;;;;;;;18.64;58.62;97910.06;5002875;28;20052;-72
2023/04/26 02:05:44;;;;;;;9.85;3.38;;;;;;;18.64;58.66;97890.41;4987379;28;20075;-72
2023/04/26 02:08:10;;;;;;;4.68;3.30;;;;;;;18.61;59.03;97889.06;5002374;28;20503;-77
2023/04/26 02:10:37;;;;;;;4.38;3.30;;;;;;;18.62;59.61;97895.25;5018251;28;20144;-72
2023/04/26 02:13:08;;;;;;;8.13;3.33;;;;;;;18.64;59.73;97890.41;5020911;28;20063;-72
2023/04/26 02:15:36;;;;;;;4.43;3.20;;;;;;;18.68;58.64;97886.19;5021396;28;20093;-72
2023/04/26 02:18:04;;;;;;;6.70;3.42;;;;;;;18.70;59.43;97882.16;5021675;28;20076;-72
2023/04/26 02:20:37;;;;;;;5.05;3.97;;;;;;;18.86;60.19;97886.66;5037788;28;20166;-73
2023/04/26 02:23:04;;;;;;;5.78;3.78;;;;;;;18.76;60.48;97883.84;5005376;28;20518;-72
2023/04/26 02:25:32;;;;;;;9.63;4.53;;;;;;;18.72;60.33;97863.91;5019968;28;20194;-71
2023/04/26 02:28:01;;;;;;;7.55;3.80;;;;;;;18.94;60.71;97880.81;5037120;28;20143;-73
2023/04/26 02:30:28;;;;;;;8.52;4.53;;;;;;;18.86;60.20;97873.19;5004192;28;20048;-73
2023/04/26 02:32:55;;;;;;;8.18;4.65;;;;;;;18.89;60.91;97874.56;5021014;28;20090;-72
2023/04/26 02:35:21;;;;;;;8.30;4.95;;;;;;;18.84;61.04;97859.19;5016970;28;20061;-72
2023/04/26 02:37:47;;;;;;;6.80;4.78;;;;;;;18.88;60.97;97870.25;4955078;28;20063;-72
2023/04/26 02:40:17;;;;;;;6.55;5.50;;;;;;;19.03;61.90;97868.53;4923538;28;20059;-73
2023/04/26 02:42:43;;;;;;;7.05;5.50;;;;;;;18.90;61.86;97871.63;4955766;28;20063;-73
2023/04/26 02:45:10;;;;;;;8.60;5.28;;;;;;;18.96;60.66;97869.81;4955995;28;20512;-73
2023/04/26 02:47:38;;;;;;;7.50;5.38;;;;;;;18.93;60.73;97868.41;4938559;28;20142;-73
2023/04/26 02:50:08;;;;;;;8.70;5.72;;;;;;;19.07;61.13;97866.13;4952140;28;20051;-73
2023/04/26 02:52:48;;;;;;;11.57;5.90;;;;;;;19.09;60.80;97861.31;4955019;28;20497;-73
2023/04/26 02:55:20;;;;;;;7.07;5.57;;;;;;;19.10;61.70;97852.97;4939077;28;20157;-74
2023/04/26 02:57:46;;;;;;;7.32;5.68;;;;;;;18.96;61.25;97859.06;4990439;28;20042;-73
2023/04/26 03:00:14;;;;;;;10.32;5.68;;;;;;;18.97;61.35;97856.09;4939215;28;20055;-78
2023/04/26 03:02:43;;;;;;;7.40;5.32;;;;;;;18.98;61.04;97860.41;4923689;28;20205;-72
2023/04/26 03:05:09;;;;;;;9.43;5.47;;;;;;;18.99;61.35;97853.94;4954992;28;20054;-72
2023/04/26 03:07:36;;;;;;;7.15;5.10;;;;;;;19.05;60.86;97852.94;4955013;28;20086;-72
2023/04/26 03:10:04;;;;;;;8.40;5.45;;;;;;;19.02;60.88;97849.97;4945201;28;20057;-73
2023/04/26 03:12:32;;;;;;;6.30;5.20;;;;;;;19.00;60.63;97849.41;4978115;28;20041;-73
2023/04/26 03:15:02;;;;;;;11.23;5.60;;;;;;;19.04;60.74;97851.31;4989975;28;20511;-72
2023/04/26 03:17:31;;;;;;;8.07;5.32;;;;;;;19.10;59.86;97842.22;4977757;28;20089;-72
2023/04/26 03:20:07;;;;;;;;;;;;;;;19.43;59.89;97849.25;4977314;28;20084;-73
2023/04/26 03:22:41;;;;;;;12.80;5.10;;;;;;;19.31;59.59;97838.66;4961328;28;19929;-72
2023/04/26 03:25:08;;;;;;;5.50;4.85;;;;;;;19.15;59.02;97839.59;4977787;28;20055;-73
2023/04/26 03:27:36;;;;;;;8.35;4.88;;;;;;;19.10;59.04;97834.16;4958251;28;20154;-72
2023/04/26 03:30:04;;;;;;;7.60;5.10;;;;;;;19.10;59.55;97828.78;4957827;28;20058;-73
2023/04/26 03:32:40;;;;;;;8.48;4.70;;;;;;;19.19;59.70;97835.31;4923127;29;20055;-72
2023/04/26 03:35:09;;;;;;;5.57;4.20;;;;;;;19.07;59.63;97829.28;4925847;29;20056;-74
2023/04/26 03:37:38;;;;;;;6.55;4.50;;;;;;;19.05;59.04;97828.72;4937613;29;20524;-73
2023/04/26 03:40:08;;;;;;;9.50;5.55;;;;;;;19.22;59.59;97820.53;4938588;29;20051;-72
2023/04/26 03:42:36;;;;;;;8.07;4.85;;;;;;;19.20;59.28;97830.75;4884995;29;20389;-72
2023/04/26 03:45:04;;;;;;;7.55;4.72;;;;;;;19.24;59.11;97823.75;4879586;29;20067;-72
2023/04/26 03:47:34;;;;;;;9.02;4.78;;;;;;;19.28;59.38;97828.41;4897598;29;20113;-72
2023/04/26 03:50:02;;;;;;;5.60;4.45;;;;;;;19.32;59.12;97818.75;4861920;29;20067;-73
2023/04/26 03:52:31;;;;;;;7.40;4.70;;;;;;;19.25;58.41;97828.09;4842974;29;20097;-72
2023/04/26 03:54:59;;;;;;;6.93;4.13;;;;;;;19.34;58.38;97819.28;4841756;29;20066;-73
2023/04/26 03:57:28;;;;;;;6.15;4.68;;;;;;;19.41;58.74;97824.47;4841782;29;20054;-73
2023/04/26 03:59:55;;;;;;;9.57;6.20;;;;;;;19.32;58.91;97818.75;4826036;29;20062;-72
2023/04/26 04:02:22;;;;;;;6.93;4.93;;;;;;;19.34;58.24;97823.88;4881437;29;20064;-75
2023/04/26 04:04:51;;;;;;;5.68;4.80;;;;;;;19.53;58.16;97819.72;4869438;29;20060;-74
2023/04/26 04:07:20;;;;;;;9.90;4.85;;;;;;;19.34;57.63;97813.91;4913580;29;20075;-75
2023/04/26 04:09:47;;;;;;;5.45;4.50;;;;;;;19.30;57.18;97817.38;4887967;29;20063;-73
2023/04/26 04:12:13;;;;;;;5.38;4.38;;;;;;;19.30;57.00;97817.38;4902112;29;20051;-72
2023/04/26 04:14:41;;;;;;;7.43;5.20;;;;;;;19.40;57.17;97812.91;4923412;28;20053;-73
2023/04/26 04:17:11;;;;;;;6.53;4.05;;;;;;;19.42;57.41;97810.75;4932125;29;20163;-71
2023/04/26 04:19:44;;;;;;;4.60;3.90;;;;;;;19.29;56.99;97807.69;4972099;28;20058;-75
2023/04/26 04:22:32;;;;;;;5.68;4.07;;;;;;;19.48;56.66;97808.94;4989807;28;20409;-73
2023/04/26 04:25:00;;;;;;;8.60;4.00;;;;;;;19.31;57.11;97808.25;4974152;28;20077;-68
2023/04/26 04:27:30;;;;;;;5.93;4.05;;;;;;;19.27;56.80;97810.66;4932815;29;20097;-71
2023/04/26 04:29:56;;;;;;;5.18;4.25;;;;;;;19.23;57.69;97806.00;4917205;29;20109;-70
2023/04/26 04:32:31;;;;;;;6.13;4.47;;;;;;;19.33;57.44;97806.91;4905552;29;20085;-70
2023/04/26 04:34:59;;;;;;;7.13;3.80;;;;;;;19.35;57.30;97803.97;4933055;29;20391;-71
2023/04/26 04:37:25;;;;;;;6.15;4.28;;;;;;;19.42;57.45;97802.66;4917943;29;20055;-68
2023/04/26 04:39:52;;;;;;;9.95;4.10;;;;;;;19.46;57.20;97811.88;4903532;29;20058;-68
2023/04/26 04:42:18;;;;;;;6.60;4.20;;;;;;;19.40;56.68;97809.41;4913497;29;20056;-71
2023/04/26 04:44:45;;;;;;;4.88;3.58;;;;;;;19.39;56.42;97802.41;4900045;29;20114;-66
2023/04/26 04:47:14;;;;;;;4.13;3.70;;;;;;;19.54;56.10;97814.06;4884065;29;20158;-67
2023/04/26 04:49:40;;;;;;;4.03;3.45;;;;;;;19.41;56.42;97811.84;4931441;29;20058;-67
2023/04/26 04:52:06;;;;;;;5.93;3.95;;;;;;;19.39;57.08;97811.28;4912946;29;20092;-68
2023/04/26 04:54:34;;;;;;;6.15;3.67;;;;;;;19.31;57.02;97811.75;4890370;29;20064;-67
2023/04/26 04:57:00;;;;;;;5.45;3.95;;;;;;;19.31;57.51;97811.75;4928255;29;20102;-67
2023/04/26 04:59:27;;;;;;;6.15;4.22;;;;;;;19.30;57.66;97809.31;4931457;28;20373;-67
2023/04/26 05:01:54;;;;;;;5.88;3.67;;;;;;;19.33;57.66;97804.22;4986753;28;20047;-68
2023/04/26 05:04:21;;;;;;;8.57;4.60;;;;;;;19.35;57.05;97807.47;4987272;28;20054;-67
2023/04/26 05:06:48;;;;;;;7.68;3.85;;;;;;;19.42;58.04;97807.28;4988138;28;20082;-68
2023/04/26 05:09:17;;;;;;;4.25;3.83;;;;;;;19.43;58.40;97807.00;4972532;28;20057;-68
2023/04/26 05:11:43;;;;;;;6.57;4.13;;;;;;;19.50;58.59;97804.06;4996939;28;20049;-68
2023/04/26 05:14:10;;;;;;;6.72;3.95;;;;;;;19.55;58.58;97804.94;4981240;28;20077;-67
2023/04/26 05:16:37;;;;;;;5.88;3.78;;;;;;;19.50;58.48;97804.88;4961619;28;20184;-67
2023/04/26 05:19:04;;;;;;;3.80;3.42;;;;;;;19.51;58.09;97811.09;4964973;28;20061;-67
2023/04/26 05:21:31;;;;;;;4.97;4.18;;;;;;;19.54;58.98;97803.28;4997202;28;20119;-68
2023/04/26 05:23:57;;;;;;;9.43;4.10;;;;;;;19.54;59.26;97807.88;4981346;28;20045;-68
2023/04/26 05:26:23;;;;;;;7.70;3.78;;;;;;;19.59;59.11;97802.50;4981048;28;20172;-69
2023/04/26 05:28:57;;;;;;;6.78;3.53;;;;;;;19.58;58.31;97801.72;4998103;28;20506;-68
2023/04/26 05:31:28;;;;;;;7.45;3.80;;;;;;;19.59;57.72;97799.81;5013260;28;20507;-68
2023/04/26 05:34:02;;;;;;;5.18;3.58;;;;;;;19.56;58.44;97803.84;5012147;28;20053;-68
2023/04/26 05:36:34;;;;;;;6.68;3.72;;;;;;;19.68;59.27;97799.06;5015911;28;20049;-68
2023/04/26 05:39:00;;;;;;;4.93;3.38;;;;;;;19.59;59.50;97797.94;4999878;28;20052;-67
2023/04/26 05:41:26;;;;;;;5.75;3.55;;;;;;;19.65;59.66;97796.91;5033213;28;20056;-67
2023/04/26 05:43:54;;;;;;;5.90;3.20;;;;;;;19.70;59.97;97794.25;5000305;28;20060;-67
2023/04/26 05:46:20;;;;;;;3.50;3.20;;;;;;;19.74;58.67;97789.94;5016395;28;20200;-68
2023/04/26 05:48:46;;;;;;;5.10;3.15;;;;;;;19.79;58.69;97805.31;5039545;28;20470;-68
2023/04/26 05:51:12;;;;;;;5.95;3.30;;;;;;;19.81;58.59;97809.41;5072898;28;20192;-69
2023/04/26 05:53:38;;;;;;;3.83;3.42;;;;;;;19.83;58.39;97804.53;5039731;28;20067;-71
2023/04/26 05:56:04;;;;;;;4.28;3.42;;;;;;;19.87;58.50;97802.97;5039520;28;20147;-70
2023/04/26 05:58:32;;;;;;;5.88;3.30;;;;;;;19.85;58.12;97802.41;4973594;28;20054;-69
2023/04/26 06:00:59;;;;;;;7.07;3.20;;;;;;;19.92;58.21;97804.88;4993116;28;20120;-69
2023/04/26 06:03:25;;;;;;;5.90;2.90;;;;;;;19.94;58.60;97800.03;4977212;28;20476;-73
2023/04/26 06:05:53;;;;;;;6.63;3.40;;;;;;;20.03;58.75;97806.56;4954519;28;20054;-71
2023/04/26 06:08:21;;;;;;;5.00;3.50;;;;;;;20.06;58.70;97809.50;4954368;28;20145;-68
2023/04/26 06:10:48;;;;;;;5.35;2.97;;;;;;;20.10;57.01;97817.88;4939693;28;20078;-70
2023/04/26 06:13:17;;;;;;;4.47;2.90;;;;;;;20.20;56.62;97819.84;4946206;28;20561;-67
2023/04/26 06:15:42;;;;;;;9.32;3.20;;;;;;;20.24;56.69;97820.94;4947932;28;20149;-68
2023/04/26 06:18:09;;;;;;;4.32;2.70;;;;;;;20.31;56.20;97821.53;4947657;28;20046;-67
2023/04/26 06:20:35;;;;;;;5.82;3.03;;;;;;;20.32;55.72;97818.56;4967573;28;20144;-67
2023/04/26 06:23:01;;;;;;;5.00;2.78;;;;;;;20.32;56.02;97817.75;4956998;28;20799;-67
2023/04/26 06:25:28;;;;;;;4.75;3.00;;;;;;;20.34;56.39;97827.22;4973629;28;20065;-68
2023/04/26 06:27:54;;;;;;;3.97;2.65;;;;;;;20.32;55.69;97825.84;4957164;28;20078;-67
2023/04/26 06:30:20;;;;;;;5.80;2.88;;;;;;;20.31;55.88;97826.91;4971023;28;20072;-68
2023/04/26 06:32:47;;;;;;;4.13;2.58;;;;;;;20.34;55.71;97821.81;5002906;28;20053;-68
2023/04/26 06:35:13;;;;;;;4.85;2.55;;;;;;;20.36;56.04;97829.66;4979240;28;20068;-68
2023/04/26 06:37:40;;;;;;;5.43;2.80;;;;;;;20.52;56.00;97831.31;5013787;28;20139;-67
2023/04/26 06:40:09;;;;;;;5.07;2.78;;;;;;;20.51;56.05;97829.69;5020377;28;20040;-67
2023/04/26 06:42:36;;;;;;;4.43;3.20;;;;;;;20.52;56.48;97828.59;5042677;28;20076;-68
2023/04/26 06:45:21;;;;;;;7.47;5.30;;;;;;;20.52;55.47;97828.59;5053401;28;20466;-67
2023/04/26 06:47:52;;;;;;;11.07;2.92;;;;;;;20.66;55.78;97825.16;5038789;28;20039;-68
2023/04/26 06:50:18;;;;;;;3.67;2.60;;;;;;;20.47;55.58;97833.97;5072873;28;20131;-68
2023/04/26 06:52:44;;;;;;;6.43;2.83;;;;;;;20.52;55.47;97834.00;5036129;28;20194;-68
2023/04/26 06:55:09;;;;;;;3.05;2.50;;;;;;;20.55;54.87;97836.16;5053240;28;20048;-67
2023/04/26 06:57:35;;;;;;;3.55;2.70;;;;;;;20.57;54.93;97840.25;5036220;28;20059;-67
2023/04/26 07:00:02;;;;;;;3.28;2.50;;;;;;;20.60;54.31;97842.41;5036054;28;20047;-68
2023/04/26 07:02:34;;;;;;;4.43;2.58;;;;;;;20.79;54.73;97838.13;5021975;28;20044;-68
2023/04/26 07:05:01;;;;;;;4.43;2.95;;;;;;;20.65;54.23;97852.41;5035865;28;20044;-68
2023/04/26 07:07:30;;;;;;;4.00;2.70;;;;;;;20.64;54.18;97837.25;5053350;28;20044;-68
2023/04/26 07:09:56;;;;;;;5.78;2.78;;;;;;;20.66;54.40;97843.22;5019891;28;20386;-68
2023/04/26 07:12:22;;;;;;;8.05;3.22;;;;;;;20.65;54.12;97850.50;5046459;28;20097;-68
2023/04/26 07:14:48;;;;;;;4.25;2.80;;;;;;;20.76;54.26;97851.31;5073977;28;20044;-69
2023/04/26 07:17:14;;;;;;;4.45;2.60;;;;;;;20.95;53.23;97849.75;5029963;28;20068;-68
2023/04/26 07:19:40;;;;;;;4.53;2.55;;;;;;;21.02;52.37;97855.75;5015278;28;20166;-68
2023/04/26 07:22:06;;;;;;;5.70;2.80;;;;;;;21.08;51.97;97854.69;4998753;28;20541;-68
2023/04/26 07:24:32;;;;;;;4.82;2.40;;;;;;;21.08;52.19;97860.88;4998979;28;20059;-67
2023/04/26 07:26:58;;;;;;;2.92;2.33;;;;;;;21.21;51.87;97864.94;5014965;28;20053;-68
2023/04/26 07:29:23;;;;;;;4.32;2.50;;;;;;;21.28;51.25;97860.09;5015177;28;20052;-68
2023/04/26 07:31:51;;;;;;;6.07;2.60;;;;;;;21.36;51.13;97867.66;5011484;28;20113;-68
2023/04/26 07:34:17;;;;;;;3.25;2.20;;;;;;;21.45;50.99;97864.13;5012049;28;20426;-68
2023/04/26 07:36:43;;;;;;;3.78;2.17;;;;;;;21.56;50.59;97876.56;4978964;28;20050;-68
2023/04/26 07:39:10;;;;;;;3.05;2.35;;;;;;;21.70;49.89;97879.53;5004770;28;20050;-68
2023/04/26 07:41:36;;;;;;;5.07;2.20;;;;;;;21.65;49.29;97882.22;4956614;28;20057;-68
2023/04/26 07:44:03;;;;;;;4.03;2.30;;;;;;;21.69;49.28;97880.63;4972490;28;20054;-68
2023/04/26 07:46:29;;;;;;;3.70;2.20;;;;;;;21.67;49.07;97883.59;4947552;28;20315;-69
2023/04/26 07:48:55;;;;;;;4.35;2.15;;;;;;;21.72;48.78;97882.78;4955980;28;20144;-68
2023/04/26 07:51:21;;;;;;;4.65;2.15;;;;;;;21.75;48.80;97876.84;4976008;28;20081;-69
2023/04/26 07:53:47;;;;;;;3.25;2.33;;;;;;;21.67;48.43;97880.06;4959929;28;20424;-68
2023/04/26 07:56:14;;;;;;;2.17;1.83;;;;;;;21.71;48.93;97884.66;4997601;28;20037;-68
2023/04/26 07:58:40;;;;;;;6.43;2.22;;;;;;;21.55;48.54;97890.34;4979903;28;20056;-68
2023/04/26 08:01:10;;;;;;;2.05;1.70;;;;;;;21.77;48.40;97896.31;4982085;28;20045;-69
2023/04/26 08:03:36;;;;;;;2.45;1.75;;;;;;;21.62;48.40;97897.09;5013886;28;20049;-68
2023/04/26 08:06:02;;;;;;;3.22;1.60;;;;;;;21.55;48.09;97891.16;4998946;28;20495;-68
2023/04/26 08:08:28;;;;;;;2.42;1.77;;;;;;;21.54;48.18;97897.63;5002733;28;20445;-68
2023/04/26 08:10:55;;;;;;;3.22;1.80;;;;;;;21.67;47.79;97896.28;5014642;28;20059;-67
2023/04/26 08:13:23;;;;;;;2.38;1.63;;;;;;;21.79;47.36;97894.13;5010262;28;20048;-68
2023/04/26 08:15:49;;;;;;;3.53;1.40;;;;;;;21.81;47.18;97908.19;5012163;28;20055;-69
2023/04/26 08:18:15;;;;;;;3.17;1.60;;;;;;;21.73;47.24;97905.22;5031748;28;20048;-68
2023/04/26 08:20:41;;;;;;;3.45;1.40;;;;;;;21.84;47.35;97917.66;5013107;28;20067;-69
2023/04/26 08:23:07;;;;;;;2.00;1.60;;;;;;;21.89;47.40;97906.84;5031238;28;20075;-68
2023/04/26 08:25:34;;;;;;;3.97;1.80;;;;;;;21.86;47.11;97912.78;5047118;28;20529;-69
2023/04/26 08:28:01;;;;;;;3.55;1.88;;;;;;;22.07;46.92;97915.19;5001986;28;20053;-68
2023/04/26 08:30:28;;;;;;;5.68;1.70;;;;;;;22.18;46.24;97916.81;4986147;28;20131;-69
2023/04/26 08:32:55;;;;;;;1.80;1.60;;;;;;;22.35;45.63;97920.00;5001702;28;20105;-68
2023/04/26 08:35:22;;;;;;;4.15;1.80;;;;;;;22.40;45.62;97924.59;4985582;28;20045;-68
2023/04/26 08:37:48;;;;;;;3.15;1.73;;;;;;;22.54;45.34;97921.03;5002415;28;20153;-70
2023/04/26 08:40:23;;;;;;;2.15;1.58;;;;;;;22.79;44.52;97920.13;5032478;28;20083;-77
2023/04/26 08:42:52;;;;;;;1.98;1.58;;;;;;;22.67;44.18;97922.34;5042399;28;20070;-77
2023/04/26 08:45:22;;;;;;;1.55;1.25;;;;;;;22.90;43.70;97922.53;5059332;28;20063;-77
2023/04/26 08:48:04;;;;;;;6.28;1.58;;;;;;;22.88;43.45;97922.00;5042595;28;20036;-72
2023/04/26 08:50:32;;;;;;;3.83;1.60;;;;;;;23.09;42.86;97926.19;5074931;28;20086;-71
2023/04/26 08:52:59;;;;;;;1.60;1.35;;;;;;;23.21;42.15;97921.28;5025865;28;20047;-73
2023/04/26 08:55:25;;;;;;;2.60;1.30;;;;;;;23.34;41.57;97916.34;5058183;28;20043;-73
2023/04/26 08:57:51;;;;;;;1.55;1.30;;;;;;;23.26;41.37;97923.19;5025045;28;20046;-70
2023/04/26 09:00:17;;;;;;;2.97;1.60;;;;;;;23.32;41.70;97926.66;5058635;28;20448;-81
2023/04/26 09:02:49;;;;;;;2.53;1.67;;;;;;;23.29;41.50;97920.69;5074879;28;20039;-77
2023/04/26 09:05:16;;;;;;;1.60;1.50;;;;;;;23.10;41.86;97935.16;5058995;28;20040;-80
2023/04/26 09:07:46;;;;;;;3.67;1.50;;;;;;;23.18;42.20;97934.56;5058485;28;20048;-82
2023/04/26 09:10:14;;;;;;;1.73;1.60;;;;;;;23.01;42.29;97936.81;5074186;28;20040;-81
2023/04/26 09:12:41;;;;;;;4.80;1.60;;;;;;;22.86;42.19;97947.72;5074024;28;20285;-82
2023/04/26 09:15:07;;;;;;;4.45;1.50;;;;;;;22.99;42.21;97947.94;5041371;28;20039;-80
2023/04/26 09:17:37;;;;;;;2.22;2.00;;;;;;;22.97;42.13;97933.84;5040537;28;20052;-80
2023/04/26 09:20:25;;;;;;;3.63;1.88;;;;;;;23.16;41.50;97944.88;5057842;28;20067;-80
2023/04/26 09:23:10;;;;;;;2.25;1.65;;;;;;;23.02;42.28;97947.38;5057897;28;20047;-81
2023/04/26 09:25:36;;;;;;;2.22;1.60;;;;;;;22.89;42.01;97952.59;5057883;28;20075;-81
2023/04/26 09:28:03;;;;;;;1.55;1.45;;;;;;;22.93;41.86;97959.88;5041399;28;20124;-81
2023/04/26 09:30:38;;;;;;;7.47;1.67;;;;;;;23.09;42.06;97956.00;5058330;28;20071;-80
2023/04/26 09:33:05;;;;;;;1.40;1.30;;;;;;;22.96;41.81;97959.31;5074086;28;20051;-80
2023/04/26 09:35:38;;;;;;;1.85;1.58;;;;;;;23.09;41.90;97963.31;5052951;28;20137;-82
2023/04/26 09:38:12;;;;;;;1.80;1.60;;;;;;;23.22;42.26;97963.53;5036478;28;20068;-79
2023/04/26 09:40:40;;;;;;;5.13;1.98;;;;;;;22.86;44.25;97958.56;5020329;28;20096;-81
2023/04/26 09:43:16;;;;;;;3.10;2.25;;;;;;;22.55;45.75;97960.56;5020341;28;20243;-81
2023/04/26 09:45:49;;;;;;;7.07;2.55;;;;;;;22.56;46.71;97958.66;5036371;28;20072;-82
2023/04/26 09:48:21;;;;;;;2.88;2.60;;;;;;;22.60;46.76;97955.13;5020428;28;20044;-80
2023/04/26 09:50:56;;;;;;;3.55;2.80;;;;;;;22.85;47.10;97968.56;5037007;28;20382;-81
2023/04/26 09:53:38;;;;;;;4.75;2.60;;;;;;;22.73;47.06;97965.38;5052933;28;20056;-80
2023/04/26 09:56:17;;;;;;;3.22;2.78;;;;;;;22.59;47.70;97967.03;5019625;28;20139;-82
2023/04/26 09:58:47;;;;;;;4.25;2.70;;;;;;;22.39;47.88;97969.75;5019611;28;20051;-71
2023/04/26 10:01:16;;;;;;;5.20;2.05;;;;;;;22.02;48.79;97971.97;5052745;28;20162;-70
2023/04/26 10:03:44;;;;;;;4.03;2.40;;;;;;;21.82;50.18;97988.19;5036174;28;20044;-70
2023/04/26 10:06:12;;;;;;;3.97;2.33;;;;;;;21.71;51.19;97978.44;5030935;28;20044;-74
2023/04/26 10:08:38;;;;;;;5.40;2.67;;;;;;;21.58;51.04;97978.97;5069943;28;20447;-75
2023/04/26 10:11:10;;;;;;;6.28;3.17;;;;;;;21.53;50.71;97973.53;5069851;28;20059;-75
2023/04/26 10:13:36;;;;;;;6.75;3.83;;;;;;;21.66;52.11;97981.94;5068538;28;20102;-75
2023/04/26 10:16:03;;;;;;;12.23;5.63;;;;;;;22.15;51.42;97978.72;5051944;28;20090;-76
2023/04/26 10:18:30;;;;;;;12.35;6.57;;;;;;;22.67;49.36;97988.13;5034945;28;20051;-76
2023/04/26 10:21:03;;;;;;;9.98;5.07;;;;;;;23.22;47.48;97990.59;5063006;28;20530;-75
2023/04/26 10:23:30;;;;;;;10.07;4.13;;;;;;;23.31;46.18;97995.47;5051218;28;20040;-77
2023/04/26 10:25:57;;;;;;;9.98;4.93;;;;;;;23.34;45.30;98006.53;5018848;28;20044;-75
2023/04/26 10:28:47;;;;;;;7.68;4.57;;;;;;;23.45;43.91;98018.97;5020384;28;20044;-78
2023/04/26 10:31:14;;;;;;;8.57;5.53;;;;;;;23.14;44.78;98017.47;5053456;28;20036;-76
2023/04/26 10:33:41;;;;;;;5.85;4.30;;;;;;;23.13;45.45;98021.25;5037394;28;20386;-78
2023/04/26 10:36:14;;;;;;;5.28;3.85;;;;;;;23.14;46.20;98023.69;5036362;28;20044;-73
2023/04/26 10:39:17;;;;;;;9.60;3.90;;;;;;;23.04;47.10;98021.03;5053164;28;20040;-74
2023/04/26 10:41:42;;;;;;;3.45;3.15;;;;;;;22.67;46.56;98020.59;5040094;28;20408;-75
2023/04/26 10:44:38;;;;;;;5.57;3.50;;;;;;;22.84;46.68;98025.69;5068519;28;20044;-76
2023/04/26 10:47:06;;;;;;;5.93;3.53;;;;;;;22.50;47.03;98014.66;4995608;28;20049;-74
2023/04/26 10:49:47;;;;;;;4.88;3.60;;;;;;;22.82;47.88;98006.19;4996314;28;20112;-74
2023/04/26 10:52:21;;;;;;;6.00;3.53;;;;;;;22.66;46.22;98024.41;4964010;28;20045;-73
2023/04/26 10:54:56;;;;;;;7.30;3.15;;;;;;;22.85;45.28;98033.53;5026874;28;20103;-73
2023/04/26 10:57:25;;;;;;;5.30;3.35;;;;;;;22.88;44.93;98034.91;4980096;28;20057;-73
2023/04/26 11:00:12;;;;;;;5.78;3.45;;;;;;;22.92;45.08;98042.19;4995948;28;20787;-74
2023/04/26 11:03:04;;;;;;;7.35;3.15;;;;;;;23.04;44.64;98047.28;5028521;28;20053;-74
2023/04/26 11:05:36;;;;;;;6.30;3.10;;;;;;;23.15;44.65;98054.31;4976682;28;20049;-75
2023/04/26 11:08:03;;;;;;;6.07;2.90;;;;;;;23.11;44.40;98043.19;4996076;28;20392;-73
2023/04/26 11:10:29;;;;;;;4.45;3.00;;;;;;;23.00;43.67;98041.59;5012379;28;20096;-75
2023/04/26 11:13:01;;;;;;;4.95;3.00;;;;;;;22.91;43.85;98035.16;4994986;28;20085;-75
2023/04/26 11:15:31;;;;;;;5.15;3.20;;;;;;;22.70;44.83;98047.13;5012464;28;20535;-75
2023/04/26 11:17:57;;;;;;;7.82;3.50;;;;;;;22.44;44.68;98053.63;5037285;28;20536;-73
2023/04/26 11:20:29;;;;;;;4.85;3.50;;;;;;;22.38;45.54;98053.91;5052635;28;20056;-74
2023/04/26 11:22:55;;;;;;;6.95;3.55;;;;;;;22.16;45.88;98056.88;5052546;28;20044;-75
2023/04/26 11:25:25;;;;;;;7.10;3.60;;;;;;;22.09;46.31;98055.53;5036298;28;20075;-74
2023/04/26 11:27:56;;;;;;;6.18;3.83;;;;;;;21.70;47.73;98061.41;5020147;28;20058;-74
2023/04/26 11:30:22;;;;;;;8.30;4.20;;;;;;;21.47;48.61;98061.06;5052734;28;20072;-74
2023/04/26 11:32:48;;;;;;;6.55;3.90;;;;;;;21.49;49.21;98051.63;5036587;28;20072;-75
2023/04/26 11:35:14;;;;;;;7.13;3.78;;;;;;;21.60;49.05;98049.75;5055962;28;20131;-74
2023/04/26 11:37:40;;;;;;;8.63;3.88;;;;;;;21.60;49.38;98052.47;5023020;28;20040;-73
2023/04/26 11:40:10;;;;;;;6.35;3.67;;;;;;;21.67;49.98;98044.91;5037628;28;20097;-74
2023/04/26 11:42:36;;;;;;;7.40;4.10;;;;;;;21.79;49.03;98060.91;5054358;28;20071;-73